Pagrindinis puslapis
METAR-TAF:

METAR-TAF

Oro uostai :

Venecijos Marko Polo oro uostas

Venecija, Italija

platuma: 45-30N, ilguma: 012-20E, Aukštis: 2 m

Dabartinis oras

Ataskaita buvo paskelbta 27 minutes, ne 17:50 UTC
Vėjas 5 kt iš Šiaurės/Šiaurės Rytų
Temperatūra 5°C
Drėgmė 100%
Slėgis 996 hPa
Matomumas 10 km arba daugiau
Išsisklaidę debesys ne aukštis 1200 ft
Su prošvaistėmis ne aukštis 2000 ft

METAR: LIPZ 231750Z 02005KT 9999 SCT012 BKN020 05/05 Q0996 NOSIG

Laikas: 19:17 (18:17 UTC)

Prognozė

Ataskaita buvo paskelbta 1 valandą ir 17 minutes, ne 17:00 UTC
Prognozė galioja nuo 23 metu 18 UTC su 24 metu 24 UTC
Vėjas 6 kt nuo kintamojo kryptimis
Matomumas: 7000 m
Išsisklaidę debesys ne aukštis 4000 ft
Laikinai
nuo 23 metu 21 UTC su 24 metu 08 UTC
Matomumas: 2000 m
Su prošvaistėmis ne aukštis 600 ft
rūkana

TAF: LIPZ 231700Z 2318/2424 VRB06KT 7000 SCT040 TEMPO 2321/2408 2000 BR BKN006

Orai ataskaitas ir orų prognozės (METAR, TAF).

turimą stotys yra geltonos ir raudonos taškus žemėlapyje.

Perkelti pele per norėdami pamatyti stoties vardą.

Tada spustelėkite, norėdami matyti oro stebėjimo ir prognozės.

Norėdami pakeisti žemėlapį: spustelėkite ant žalios mygtukų su juodo kryžiaus žemyn,; žalią mygtuką su brūkšneliu, jei norite nutolinti; arba žalių rodyklių gretimoms žemėlapius.


METAR-TAF: